sensor_id;sensor_type;location;lat;lon;timestamp;P1;durP1;ratioP1;P2;durP2;ratioP2
57025;SDS011;43961;52.940;6.834;2022-07-15T00:01:15;7.30;;;3.80;;
57025;SDS011;43961;52.940;6.834;2022-07-15T00:03:40;5.47;;;3.97;;
57025;SDS011;43961;52.940;6.834;2022-07-15T00:06:06;10.80;;;4.10;;
57025;SDS011;43961;52.940;6.834;2022-07-15T00:08:32;7.90;;;3.92;;
57025;SDS011;43961;52.940;6.834;2022-07-15T00:10:57;10.68;;;4.22;;
57025;SDS011;43961;52.940;6.834;2022-07-15T00:13:23;13.27;;;4.18;;
57025;SDS011;43961;52.940;6.834;2022-07-15T00:15:50;6.22;;;3.95;;
57025;SDS011;43961;52.940;6.834;2022-07-15T00:18:16;6.97;;;3.45;;
57025;SDS011;43961;52.940;6.834;2022-07-15T00:20:41;12.57;;;4.13;;
57025;SDS011;43961;52.940;6.834;2022-07-15T00:23:07;8.55;;;3.97;;
57025;SDS011;43961;52.940;6.834;2022-07-15T00:25:33;12.02;;;3.95;;
57025;SDS011;43961;52.940;6.834;2022-07-15T00:28:00;11.23;;;4.43;;
57025;SDS011;43961;52.940;6.834;2022-07-15T00:30:31;12.00;;;4.45;;
57025;SDS011;43961;52.940;6.834;2022-07-15T00:32:58;16.30;;;5.00;;
57025;SDS011;43961;52.940;6.834;2022-07-15T00:35:25;12.57;;;4.50;;
57025;SDS011;43961;52.940;6.834;2022-07-15T00:37:51;6.65;;;3.60;;
57025;SDS011;43961;52.940;6.834;2022-07-15T00:40:17;9.85;;;4.05;;
57025;SDS011;43961;52.940;6.834;2022-07-15T00:42:43;6.93;;;3.83;;
57025;SDS011;43961;52.940;6.834;2022-07-15T00:45:10;10.80;;;3.88;;
57025;SDS011;43961;52.940;6.834;2022-07-15T00:47:36;5.85;;;4.47;;
57025;SDS011;43961;52.940;6.834;2022-07-15T00:50:02;7.88;;;3.63;;
57025;SDS011;43961;52.940;6.834;2022-07-15T00:52:28;8.20;;;3.60;;
57025;SDS011;43961;52.940;6.834;2022-07-15T00:54:54;6.40;;;3.67;;
57025;SDS011;43961;52.940;6.834;2022-07-15T00:57:24;10.45;;;4.38;;
57025;SDS011;43961;52.940;6.834;2022-07-15T00:59:53;8.27;;;3.78;;
57025;SDS011;43961;52.940;6.834;2022-07-15T01:02:19;18.95;;;5.10;;
57025;SDS011;43961;52.940;6.834;2022-07-15T01:04:45;9.70;;;4.43;;
57025;SDS011;43961;52.940;6.834;2022-07-15T01:07:13;14.32;;;3.75;;
57025;SDS011;43961;52.940;6.834;2022-07-15T01:09:39;18.02;;;5.25;;
57025;SDS011;43961;52.940;6.834;2022-07-15T01:12:05;13.65;;;4.28;;
57025;SDS011;43961;52.940;6.834;2022-07-15T01:14:31;8.18;;;4.25;;
57025;SDS011;43961;52.940;6.834;2022-07-15T01:16:56;17.33;;;4.93;;
57025;SDS011;43961;52.940;6.834;2022-07-15T01:19:23;7.07;;;3.42;;
57025;SDS011;43961;52.940;6.834;2022-07-15T01:21:49;8.63;;;4.30;;
57025;SDS011;43961;52.940;6.834;2022-07-15T01:24:14;7.97;;;5.13;;
57025;SDS011;43961;52.940;6.834;2022-07-15T01:26:40;8.40;;;4.75;;
57025;SDS011;43961;52.940;6.834;2022-07-15T01:29:06;13.13;;;4.10;;
57025;SDS011;43961;52.940;6.834;2022-07-15T01:31:31;14.35;;;5.90;;
57025;SDS011;43961;52.940;6.834;2022-07-15T01:33:57;13.90;;;4.88;;
57025;SDS011;43961;52.940;6.834;2022-07-15T01:36:23;11.73;;;4.78;;
57025;SDS011;43961;52.940;6.834;2022-07-15T01:38:48;8.68;;;4.80;;
57025;SDS011;43961;52.940;6.834;2022-07-15T01:41:14;18.30;;;5.43;;
57025;SDS011;43961;52.940;6.834;2022-07-15T01:43:40;7.97;;;4.03;;
57025;SDS011;43961;52.940;6.834;2022-07-15T01:46:06;23.77;;;5.13;;
57025;SDS011;43961;52.940;6.834;2022-07-15T01:48:31;10.68;;;4.13;;
57025;SDS011;43961;52.940;6.834;2022-07-15T01:51:16;10.02;;;4.18;;
57025;SDS011;43961;52.940;6.834;2022-07-15T01:53:41;15.60;;;5.35;;
57025;SDS011;43961;52.940;6.834;2022-07-15T01:56:07;15.70;;;4.63;;
57025;SDS011;43961;52.940;6.834;2022-07-15T01:58:33;10.70;;;4.32;;
57025;SDS011;43961;52.940;6.834;2022-07-15T02:00:59;10.70;;;4.22;;
57025;SDS011;43961;52.940;6.834;2022-07-15T02:03:24;11.57;;;4.20;;
57025;SDS011;43961;52.940;6.834;2022-07-15T02:05:50;13.45;;;5.03;;
57025;SDS011;43961;52.940;6.834;2022-07-15T02:08:16;13.23;;;4.32;;
57025;SDS011;43961;52.940;6.834;2022-07-15T02:10:42;10.70;;;4.43;;
57025;SDS011;43961;52.940;6.834;2022-07-15T02:13:08;8.23;;;4.70;;
57025;SDS011;43961;52.940;6.834;2022-07-15T02:15:36;12.75;;;4.57;;
57025;SDS011;43961;52.940;6.834;2022-07-15T02:18:02;12.93;;;4.40;;
57025;SDS011;43961;52.940;6.834;2022-07-15T02:20:28;11.38;;;4.63;;
57025;SDS011;43961;52.940;6.834;2022-07-15T02:22:54;18.13;;;4.57;;
57025;SDS011;43961;52.940;6.834;2022-07-15T02:25:23;15.23;;;5.18;;
57025;SDS011;43961;52.940;6.834;2022-07-15T02:27:54;17.23;;;4.78;;
57025;SDS011;43961;52.940;6.834;2022-07-15T02:30:27;11.10;;;5.03;;
57025;SDS011;43961;52.940;6.834;2022-07-15T02:32:57;14.15;;;5.05;;
57025;SDS011;43961;52.940;6.834;2022-07-15T02:35:24;9.63;;;4.22;;
57025;SDS011;43961;52.940;6.834;2022-07-15T02:37:50;25.17;;;5.00;;
57025;SDS011;43961;52.940;6.834;2022-07-15T02:40:16;15.45;;;4.60;;
57025;SDS011;43961;52.940;6.834;2022-07-15T02:45:21;10.07;;;4.03;;
57025;SDS011;43961;52.940;6.834;2022-07-15T02:50:17;10.00;;;4.07;;
57025;SDS011;43961;52.940;6.834;2022-07-15T02:52:43;10.80;;;5.30;;
57025;SDS011;43961;52.940;6.834;2022-07-15T02:55:10;13.75;;;4.28;;
57025;SDS011;43961;52.940;6.834;2022-07-15T02:57:37;10.30;;;3.88;;
57025;SDS011;43961;52.940;6.834;2022-07-15T03:00:04;5.25;;;3.50;;
57025;SDS011;43961;52.940;6.834;2022-07-15T03:02:31;15.02;;;4.70;;
57025;SDS011;43961;52.940;6.834;2022-07-15T03:04:57;9.60;;;4.20;;
57025;SDS011;43961;52.940;6.834;2022-07-15T03:07:23;12.90;;;4.85;;
57025;SDS011;43961;52.940;6.834;2022-07-15T03:09:49;4.70;;;3.38;;
57025;SDS011;43961;52.940;6.834;2022-07-15T03:12:14;13.45;;;4.35;;
57025;SDS011;43961;52.940;6.834;2022-07-15T03:14:40;15.80;;;4.45;;
57025;SDS011;43961;52.940;6.834;2022-07-15T03:17:07;11.25;;;4.32;;
57025;SDS011;43961;52.940;6.834;2022-07-15T03:19:33;21.30;;;4.82;;
57025;SDS011;43961;52.940;6.834;2022-07-15T03:21:59;7.43;;;4.00;;
57025;SDS011;43961;52.940;6.834;2022-07-15T03:24:25;8.05;;;3.83;;
57025;SDS011;43961;52.940;6.834;2022-07-15T03:26:50;6.25;;;4.00;;
57025;SDS011;43961;52.940;6.834;2022-07-15T03:29:16;6.45;;;4.10;;
57025;SDS011;43961;52.940;6.834;2022-07-15T03:31:42;6.03;;;3.70;;
57025;SDS011;43961;52.940;6.834;2022-07-15T03:34:08;16.20;;;4.35;;
57025;SDS011;43961;52.940;6.834;2022-07-15T03:36:38;15.82;;;4.22;;
57025;SDS011;43961;52.940;6.834;2022-07-15T03:39:05;9.10;;;4.35;;
57025;SDS011;43961;52.940;6.834;2022-07-15T03:41:31;10.43;;;4.18;;
57025;SDS011;43961;52.940;6.834;2022-07-15T03:43:57;9.05;;;4.03;;
57025;SDS011;43961;52.940;6.834;2022-07-15T03:46:23;16.60;;;4.15;;
57025;SDS011;43961;52.940;6.834;2022-07-15T03:48:49;14.82;;;4.85;;
57025;SDS011;43961;52.940;6.834;2022-07-15T03:51:15;9.88;;;4.35;;
57025;SDS011;43961;52.940;6.834;2022-07-15T03:53:41;13.27;;;4.10;;
57025;SDS011;43961;52.940;6.834;2022-07-15T03:56:07;13.60;;;4.85;;
57025;SDS011;43961;52.940;6.834;2022-07-15T03:58:33;7.25;;;4.63;;
57025;SDS011;43961;52.940;6.834;2022-07-15T04:00:59;9.10;;;4.30;;
57025;SDS011;43961;52.940;6.834;2022-07-15T04:03:24;17.05;;;5.82;;
57025;SDS011;43961;52.940;6.834;2022-07-15T04:05:50;10.88;;;5.22;;
57025;SDS011;43961;52.940;6.834;2022-07-15T04:08:16;7.32;;;4.55;;
57025;SDS011;43961;52.940;6.834;2022-07-15T04:10:42;10.63;;;5.00;;
57025;SDS011;43961;52.940;6.834;2022-07-15T04:13:07;7.25;;;4.50;;
57025;SDS011;43961;52.940;6.834;2022-07-15T04:15:33;19.58;;;6.05;;
57025;SDS011;43961;52.940;6.834;2022-07-15T04:17:59;13.68;;;5.43;;
57025;SDS011;43961;52.940;6.834;2022-07-15T04:20:26;13.32;;;4.57;;
57025;SDS011;43961;52.940;6.834;2022-07-15T04:22:52;11.07;;;4.43;;
57025;SDS011;43961;52.940;6.834;2022-07-15T04:25:19;10.93;;;5.82;;
57025;SDS011;43961;52.940;6.834;2022-07-15T04:27:46;11.55;;;5.20;;
57025;SDS011;43961;52.940;6.834;2022-07-15T04:30:13;12.20;;;6.50;;
57025;SDS011;43961;52.940;6.834;2022-07-15T04:32:40;15.05;;;4.80;;
57025;SDS011;43961;52.940;6.834;2022-07-15T04:35:06;9.90;;;4.78;;
57025;SDS011;43961;52.940;6.834;2022-07-15T04:37:32;12.60;;;5.00;;
57025;SDS011;43961;52.940;6.834;2022-07-15T04:39:58;12.65;;;6.45;;
57025;SDS011;43961;52.940;6.834;2022-07-15T04:42:23;13.35;;;5.00;;
57025;SDS011;43961;52.940;6.834;2022-07-15T04:44:49;14.50;;;5.53;;
57025;SDS011;43961;52.940;6.834;2022-07-15T04:47:15;11.52;;;5.38;;
57025;SDS011;43961;52.940;6.834;2022-07-15T04:49:42;12.23;;;5.38;;
57025;SDS011;43961;52.940;6.834;2022-07-15T04:52:26;14.07;;;5.95;;
57025;SDS011;43961;52.940;6.834;2022-07-15T04:54:53;15.40;;;6.38;;
57025;SDS011;43961;52.940;6.834;2022-07-15T04:57:19;11.40;;;5.57;;
57025;SDS011;43961;52.940;6.834;2022-07-15T04:59:46;18.85;;;5.65;;
57025;SDS011;43961;52.940;6.834;2022-07-15T05:02:13;17.38;;;5.10;;
57025;SDS011;43961;52.940;6.834;2022-07-15T05:04:38;14.50;;;4.82;;
57025;SDS011;43961;52.940;6.834;2022-07-15T05:07:05;9.45;;;4.13;;
57025;SDS011;43961;52.940;6.834;2022-07-15T05:09:31;13.05;;;5.43;;
57025;SDS011;43961;52.940;6.834;2022-07-15T05:11:58;20.10;;;5.47;;
57025;SDS011;43961;52.940;6.834;2022-07-15T05:14:24;9.85;;;5.03;;
57025;SDS011;43961;52.940;6.834;2022-07-15T05:16:50;17.25;;;4.63;;
57025;SDS011;43961;52.940;6.834;2022-07-15T05:19:17;7.60;;;4.00;;
57025;SDS011;43961;52.940;6.834;2022-07-15T05:21:42;12.55;;;4.72;;
57025;SDS011;43961;52.940;6.834;2022-07-15T05:24:08;8.50;;;3.70;;
57025;SDS011;43961;52.940;6.834;2022-07-15T05:26:34;12.10;;;4.13;;
57025;SDS011;43961;52.940;6.834;2022-07-15T05:28:59;12.98;;;5.20;;
57025;SDS011;43961;52.940;6.834;2022-07-15T05:31:26;8.57;;;4.03;;
57025;SDS011;43961;52.940;6.834;2022-07-15T05:33:52;13.02;;;4.85;;
57025;SDS011;43961;52.940;6.834;2022-07-15T05:36:18;9.50;;;4.18;;
57025;SDS011;43961;52.940;6.834;2022-07-15T05:38:44;8.93;;;3.17;;
57025;SDS011;43961;52.940;6.834;2022-07-15T05:41:10;5.70;;;2.83;;
57025;SDS011;43961;52.940;6.834;2022-07-15T05:43:36;10.27;;;2.95;;
57025;SDS011;43961;52.940;6.834;2022-07-15T05:46:02;7.32;;;3.03;;
57025;SDS011;43961;52.940;6.834;2022-07-15T05:48:29;13.43;;;3.63;;
57025;SDS011;43961;52.940;6.834;2022-07-15T05:50:55;13.73;;;2.85;;
57025;SDS011;43961;52.940;6.834;2022-07-15T05:53:20;4.32;;;2.13;;
57025;SDS011;43961;52.940;6.834;2022-07-15T05:55:46;7.47;;;3.53;;
57025;SDS011;43961;52.940;6.834;2022-07-15T05:58:12;7.15;;;2.97;;
57025;SDS011;43961;52.940;6.834;2022-07-15T06:00:37;9.57;;;2.40;;
57025;SDS011;43961;52.940;6.834;2022-07-15T06:03:04;9.80;;;3.58;;
57025;SDS011;43961;52.940;6.834;2022-07-15T06:05:30;6.50;;;2.67;;
57025;SDS011;43961;52.940;6.834;2022-07-15T06:07:56;6.25;;;2.95;;
57025;SDS011;43961;52.940;6.834;2022-07-15T06:10:22;5.95;;;2.75;;
57025;SDS011;43961;52.940;6.834;2022-07-15T06:12:48;6.32;;;2.90;;
57025;SDS011;43961;52.940;6.834;2022-07-15T06:15:14;22.00;;;3.03;;
57025;SDS011;43961;52.940;6.834;2022-07-15T06:17:39;6.00;;;2.85;;
57025;SDS011;43961;52.940;6.834;2022-07-15T06:20:05;5.85;;;3.05;;
57025;SDS011;43961;52.940;6.834;2022-07-15T06:22:32;6.65;;;3.00;;
57025;SDS011;43961;52.940;6.834;2022-07-15T06:24:57;2.92;;;2.10;;
57025;SDS011;43961;52.940;6.834;2022-07-15T06:27:23;10.43;;;2.42;;
57025;SDS011;43961;52.940;6.834;2022-07-15T06:29:49;9.50;;;2.17;;
57025;SDS011;43961;52.940;6.834;2022-07-15T06:32:16;9.38;;;2.75;;
57025;SDS011;43961;52.940;6.834;2022-07-15T06:34:42;8.77;;;2.75;;
57025;SDS011;43961;52.940;6.834;2022-07-15T06:37:10;8.98;;;2.88;;
57025;SDS011;43961;52.940;6.834;2022-07-15T06:39:36;4.85;;;2.28;;
57025;SDS011;43961;52.940;6.834;2022-07-15T06:42:01;5.13;;;2.05;;
57025;SDS011;43961;52.940;6.834;2022-07-15T06:44:28;4.45;;;1.73;;
57025;SDS011;43961;52.940;6.834;2022-07-15T06:46:54;7.40;;;1.92;;
57025;SDS011;43961;52.940;6.834;2022-07-15T06:49:20;14.70;;;2.05;;
57025;SDS011;43961;52.940;6.834;2022-07-15T06:51:46;3.17;;;1.80;;
57025;SDS011;43961;52.940;6.834;2022-07-15T06:54:12;6.63;;;2.05;;
57025;SDS011;43961;52.940;6.834;2022-07-15T06:56:38;9.48;;;2.65;;
57025;SDS011;43961;52.940;6.834;2022-07-15T06:59:04;5.50;;;1.90;;
57025;SDS011;43961;52.940;6.834;2022-07-15T07:01:30;2.72;;;1.58;;
57025;SDS011;43961;52.940;6.834;2022-07-15T07:03:56;1.75;;;1.08;;
57025;SDS011;43961;52.940;6.834;2022-07-15T07:06:22;6.20;;;1.88;;
57025;SDS011;43961;52.940;6.834;2022-07-15T07:08:48;9.93;;;1.48;;
57025;SDS011;43961;52.940;6.834;2022-07-15T07:11:14;6.07;;;1.67;;
57025;SDS011;43961;52.940;6.834;2022-07-15T07:13:40;4.55;;;1.52;;
57025;SDS011;43961;52.940;6.834;2022-07-15T07:16:06;3.88;;;1.45;;
57025;SDS011;43961;52.940;6.834;2022-07-15T07:18:32;9.60;;;5.07;;
57025;SDS011;43961;52.940;6.834;2022-07-15T07:20:58;3.67;;;1.92;;
57025;SDS011;43961;52.940;6.834;2022-07-15T07:23:24;7.43;;;1.95;;
57025;SDS011;43961;52.940;6.834;2022-07-15T07:25:52;4.93;;;1.90;;
57025;SDS011;43961;52.940;6.834;2022-07-15T07:28:18;5.60;;;1.63;;
57025;SDS011;43961;52.940;6.834;2022-07-15T07:30:44;5.78;;;2.08;;
57025;SDS011;43961;52.940;6.834;2022-07-15T07:33:11;7.75;;;2.10;;
57025;SDS011;43961;52.940;6.834;2022-07-15T07:35:37;9.88;;;2.33;;
57025;SDS011;43961;52.940;6.834;2022-07-15T07:38:03;10.38;;;1.95;;
57025;SDS011;43961;52.940;6.834;2022-07-15T07:40:29;7.60;;;1.58;;
57025;SDS011;43961;52.940;6.834;2022-07-15T07:42:55;17.40;;;2.22;;
57025;SDS011;43961;52.940;6.834;2022-07-15T07:45:22;7.70;;;2.03;;
57025;SDS011;43961;52.940;6.834;2022-07-15T07:47:48;5.40;;;1.85;;
57025;SDS011;43961;52.940;6.834;2022-07-15T07:50:14;4.32;;;1.92;;
57025;SDS011;43961;52.940;6.834;2022-07-15T07:52:40;5.00;;;1.80;;
57025;SDS011;43961;52.940;6.834;2022-07-15T07:55:07;7.05;;;1.58;;
57025;SDS011;43961;52.940;6.834;2022-07-15T07:57:34;5.13;;;1.27;;
57025;SDS011;43961;52.940;6.834;2022-07-15T08:00:00;3.22;;;1.42;;
57025;SDS011;43961;52.940;6.834;2022-07-15T08:02:27;3.88;;;1.45;;
57025;SDS011;43961;52.940;6.834;2022-07-15T08:04:53;5.82;;;1.23;;
57025;SDS011;43961;52.940;6.834;2022-07-15T08:07:19;6.65;;;2.30;;
57025;SDS011;43961;52.940;6.834;2022-07-15T08:09:45;2.50;;;1.20;;
57025;SDS011;43961;52.940;6.834;2022-07-15T08:12:10;5.45;;;1.30;;
57025;SDS011;43961;52.940;6.834;2022-07-15T08:14:36;2.28;;;1.42;;
57025;SDS011;43961;52.940;6.834;2022-07-15T08:17:02;1.52;;;1.00;;
57025;SDS011;43961;52.940;6.834;2022-07-15T08:19:28;3.90;;;1.58;;
57025;SDS011;43961;52.940;6.834;2022-07-15T08:21:53;9.60;;;2.10;;
57025;SDS011;43961;52.940;6.834;2022-07-15T08:24:19;9.80;;;1.90;;
57025;SDS011;43961;52.940;6.834;2022-07-15T08:26:45;6.03;;;1.25;;
57025;SDS011;43961;52.940;6.834;2022-07-15T08:29:11;3.20;;;1.00;;
57025;SDS011;43961;52.940;6.834;2022-07-15T08:31:37;1.77;;;0.80;;
57025;SDS011;43961;52.940;6.834;2022-07-15T08:34:03;2.40;;;1.58;;
57025;SDS011;43961;52.940;6.834;2022-07-15T08:36:29;5.88;;;1.20;;
57025;SDS011;43961;52.940;6.834;2022-07-15T08:38:55;2.65;;;1.08;;
57025;SDS011;43961;52.940;6.834;2022-07-15T08:41:21;2.63;;;1.20;;
57025;SDS011;43961;52.940;6.834;2022-07-15T08:43:47;2.10;;;1.10;;
57025;SDS011;43961;52.940;6.834;2022-07-15T08:46:13;4.70;;;1.85;;
57025;SDS011;43961;52.940;6.834;2022-07-15T08:48:40;7.85;;;1.80;;
57025;SDS011;43961;52.940;6.834;2022-07-15T08:51:08;9.55;;;1.33;;
57025;SDS011;43961;52.940;6.834;2022-07-15T08:53:34;4.88;;;1.23;;
57025;SDS011;43961;52.940;6.834;2022-07-15T08:56:00;4.78;;;1.30;;
57025;SDS011;43961;52.940;6.834;2022-07-15T08:58:27;4.43;;;0.77;;
57025;SDS011;43961;52.940;6.834;2022-07-15T09:00:54;3.55;;;1.15;;
57025;SDS011;43961;52.940;6.834;2022-07-15T09:03:19;4.53;;;0.98;;
57025;SDS011;43961;52.940;6.834;2022-07-15T09:05:45;3.70;;;1.15;;
57025;SDS011;43961;52.940;6.834;2022-07-15T09:08:12;2.38;;;1.17;;
57025;SDS011;43961;52.940;6.834;2022-07-15T09:15:59;6.38;;;1.52;;
57025;SDS011;43961;52.940;6.834;2022-07-15T09:18:27;2.42;;;1.50;;
57025;SDS011;43961;52.940;6.834;2022-07-15T09:20:56;6.43;;;1.17;;
57025;SDS011;43961;52.940;6.834;2022-07-15T09:23:26;1.65;;;0.90;;
57025;SDS011;43961;52.940;6.834;2022-07-15T09:26:41;2.65;;;1.17;;
57025;SDS011;43961;52.940;6.834;2022-07-15T09:28:49;2.83;;;1.42;;
57025;SDS011;43961;52.940;6.834;2022-07-15T09:34:19;5.07;;;1.88;;
57025;SDS011;43961;52.940;6.834;2022-07-15T09:36:52;2.22;;;1.40;;
57025;SDS011;43961;52.940;6.834;2022-07-15T09:39:19;1.88;;;1.15;;
57025;SDS011;43961;52.940;6.834;2022-07-15T09:41:47;4.05;;;1.67;;
57025;SDS011;43961;52.940;6.834;2022-07-15T09:44:14;2.78;;;1.45;;
57025;SDS011;43961;52.940;6.834;2022-07-15T09:54:24;5.30;;;1.55;;
57025;SDS011;43961;52.940;6.834;2022-07-15T09:56:55;4.00;;;1.13;;
57025;SDS011;43961;52.940;6.834;2022-07-15T09:59:23;6.30;;;1.90;;
57025;SDS011;43961;52.940;6.834;2022-07-15T10:01:49;3.60;;;1.40;;
57025;SDS011;43961;52.940;6.834;2022-07-15T10:04:17;6.82;;;1.52;;
57025;SDS011;43961;52.940;6.834;2022-07-15T10:06:44;2.28;;;1.38;;
57025;SDS011;43961;52.940;6.834;2022-07-15T10:09:13;7.57;;;1.50;;
57025;SDS011;43961;52.940;6.834;2022-07-15T10:11:40;5.03;;;1.38;;
57025;SDS011;43961;52.940;6.834;2022-07-15T10:22:29;4.70;;;1.33;;
57025;SDS011;43961;52.940;6.834;2022-07-15T10:30:23;5.88;;;1.05;;
57025;SDS011;43961;52.940;6.834;2022-07-15T10:33:05;14.05;;;2.38;;
57025;SDS011;43961;52.940;6.834;2022-07-15T10:41:04;3.35;;;1.60;;
57025;SDS011;43961;52.940;6.834;2022-07-15T10:43:39;7.68;;;1.50;;
57025;SDS011;43961;52.940;6.834;2022-07-15T10:48:47;6.35;;;2.00;;
57025;SDS011;43961;52.940;6.834;2022-07-15T10:54:04;3.70;;;1.40;;
57025;SDS011;43961;52.940;6.834;2022-07-15T10:56:56;4.03;;;1.33;;
57025;SDS011;43961;52.940;6.834;2022-07-15T10:59:24;3.92;;;0.82;;
57025;SDS011;43961;52.940;6.834;2022-07-15T11:04:35;3.67;;;1.58;;
57025;SDS011;43961;52.940;6.834;2022-07-15T11:14:58;3.70;;;1.60;;
57025;SDS011;43961;52.940;6.834;2022-07-15T11:20:01;2.22;;;1.02;;
57025;SDS011;43961;52.940;6.834;2022-07-15T11:22:46;1.38;;;1.08;;
57025;SDS011;43961;52.940;6.834;2022-07-15T11:25:32;2.08;;;1.50;;
57025;SDS011;43961;52.940;6.834;2022-07-15T11:27:59;1.92;;;1.48;;
57025;SDS011;43961;52.940;6.834;2022-07-15T11:30:37;2.53;;;1.38;;
57025;SDS011;43961;52.940;6.834;2022-07-15T11:33:18;10.95;;;3.15;;
57025;SDS011;43961;52.940;6.834;2022-07-15T11:35:56;9.45;;;3.42;;
57025;SDS011;43961;52.940;6.834;2022-07-15T11:38:27;4.35;;;1.10;;
57025;SDS011;43961;52.940;6.834;2022-07-15T11:40:56;3.92;;;1.30;;
57025;SDS011;43961;52.940;6.834;2022-07-15T11:43:43;1.25;;;1.02;;
57025;SDS011;43961;52.940;6.834;2022-07-15T11:46:45;0.98;;;0.98;;
57025;SDS011;43961;52.940;6.834;2022-07-15T11:49:35;4.93;;;1.08;;
57025;SDS011;43961;52.940;6.834;2022-07-15T11:52:01;6.00;;;0.98;;
57025;SDS011;43961;52.940;6.834;2022-07-15T11:54:28;7.45;;;1.25;;
57025;SDS011;43961;52.940;6.834;2022-07-15T11:56:57;4.13;;;1.40;;
57025;SDS011;43961;52.940;6.834;2022-07-15T11:59:25;2.20;;;0.90;;
57025;SDS011;43961;52.940;6.834;2022-07-15T12:02:05;2.50;;;1.55;;
57025;SDS011;43961;52.940;6.834;2022-07-15T12:04:33;1.55;;;0.90;;
57025;SDS011;43961;52.940;6.834;2022-07-15T12:06:59;0.95;;;0.80;;
57025;SDS011;43961;52.940;6.834;2022-07-15T12:09:26;4.32;;;1.00;;
57025;SDS011;43961;52.940;6.834;2022-07-15T12:12:03;3.35;;;1.05;;
57025;SDS011;43961;52.940;6.834;2022-07-15T12:14:29;1.40;;;1.30;;
57025;SDS011;43961;52.940;6.834;2022-07-15T12:16:55;9.88;;;1.40;;
57025;SDS011;43961;52.940;6.834;2022-07-15T12:19:23;2.63;;;1.00;;
57025;SDS011;43961;52.940;6.834;2022-07-15T12:21:52;2.40;;;1.17;;
57025;SDS011;43961;52.940;6.834;2022-07-15T12:24:23;1.55;;;1.00;;
57025;SDS011;43961;52.940;6.834;2022-07-15T12:31:50;1.90;;;0.85;;
57025;SDS011;43961;52.940;6.834;2022-07-15T12:34:59;4.35;;;1.30;;
57025;SDS011;43961;52.940;6.834;2022-07-15T12:37:27;3.00;;;1.27;;
57025;SDS011;43961;52.940;6.834;2022-07-15T12:39:56;6.38;;;1.67;;
57025;SDS011;43961;52.940;6.834;2022-07-15T12:42:32;5.25;;;1.13;;
57025;SDS011;43961;52.940;6.834;2022-07-15T12:45:25;6.53;;;1.17;;
57025;SDS011;43961;52.940;6.834;2022-07-15T12:47:59;5.10;;;0.80;;
57025;SDS011;43961;52.940;6.834;2022-07-15T12:53:00;2.40;;;1.20;;
57025;SDS011;43961;52.940;6.834;2022-07-15T12:55:31;1.15;;;1.00;;
57025;SDS011;43961;52.940;6.834;2022-07-15T12:58:02;2.15;;;0.80;;
57025;SDS011;43961;52.940;6.834;2022-07-15T13:00:37;18.08;;;2.38;;
57025;SDS011;43961;52.940;6.834;2022-07-15T13:05:46;3.83;;;0.98;;
57025;SDS011;43961;52.940;6.834;2022-07-15T13:08:20;3.03;;;0.70;;
57025;SDS011;43961;52.940;6.834;2022-07-15T13:10:57;2.78;;;1.00;;
57025;SDS011;43961;52.940;6.834;2022-07-15T13:13:25;1.98;;;0.90;;
57025;SDS011;43961;52.940;6.834;2022-07-15T13:18:18;5.30;;;0.90;;
57025;SDS011;43961;52.940;6.834;2022-07-15T13:20:45;2.78;;;0.75;;
57025;SDS011;43961;52.940;6.834;2022-07-15T13:23:11;3.30;;;1.25;;
57025;SDS011;43961;52.940;6.834;2022-07-15T13:25:37;1.20;;;0.90;;
57025;SDS011;43961;52.940;6.834;2022-07-15T13:28:06;1.25;;;0.85;;
57025;SDS011;43961;52.940;6.834;2022-07-15T13:30:33;3.35;;;1.20;;
57025;SDS011;43961;52.940;6.834;2022-07-15T13:33:00;6.22;;;1.23;;
57025;SDS011;43961;52.940;6.834;2022-07-15T13:35:26;13.70;;;2.28;;
57025;SDS011;43961;52.940;6.834;2022-07-15T13:37:52;3.88;;;1.15;;
57025;SDS011;43961;52.940;6.834;2022-07-15T13:40:18;2.38;;;1.15;;
57025;SDS011;43961;52.940;6.834;2022-07-15T13:42:44;2.05;;;0.98;;
57025;SDS011;43961;52.940;6.834;2022-07-15T13:45:11;1.25;;;0.98;;
57025;SDS011;43961;52.940;6.834;2022-07-15T13:47:37;0.93;;;0.80;;
57025;SDS011;43961;52.940;6.834;2022-07-15T13:50:04;13.23;;;1.58;;
57025;SDS011;43961;52.940;6.834;2022-07-15T13:52:50;2.17;;;1.10;;
57025;SDS011;43961;52.940;6.834;2022-07-15T13:55:17;3.38;;;1.50;;
57025;SDS011;43961;52.940;6.834;2022-07-15T13:57:44;2.15;;;1.20;;
57025;SDS011;43961;52.940;6.834;2022-07-15T14:00:12;4.13;;;1.20;;
57025;SDS011;43961;52.940;6.834;2022-07-15T14:02:41;3.65;;;1.15;;
57025;SDS011;43961;52.940;6.834;2022-07-15T14:05:07;3.60;;;1.55;;
57025;SDS011;43961;52.940;6.834;2022-07-15T14:07:34;7.18;;;1.38;;
57025;SDS011;43961;52.940;6.834;2022-07-15T14:10:00;18.30;;;2.45;;
57025;SDS011;43961;52.940;6.834;2022-07-15T14:12:26;8.25;;;1.92;;
57025;SDS011;43961;52.940;6.834;2022-07-15T14:14:52;6.13;;;1.30;;
57025;SDS011;43961;52.940;6.834;2022-07-15T14:17:18;3.65;;;1.30;;
57025;SDS011;43961;52.940;6.834;2022-07-15T14:19:43;1.38;;;1.15;;
57025;SDS011;43961;52.940;6.834;2022-07-15T14:22:09;4.70;;;1.60;;
57025;SDS011;43961;52.940;6.834;2022-07-15T14:24:36;1.58;;;1.08;;
57025;SDS011;43961;52.940;6.834;2022-07-15T14:27:02;5.47;;;1.40;;
57025;SDS011;43961;52.940;6.834;2022-07-15T14:29:28;6.22;;;1.45;;
57025;SDS011;43961;52.940;6.834;2022-07-15T14:31:54;3.90;;;1.50;;
57025;SDS011;43961;52.940;6.834;2022-07-15T14:34:20;2.20;;;1.35;;
57025;SDS011;43961;52.940;6.834;2022-07-15T14:36:46;2.35;;;1.27;;
57025;SDS011;43961;52.940;6.834;2022-07-15T14:39:11;1.05;;;0.95;;
57025;SDS011;43961;52.940;6.834;2022-07-15T14:41:37;6.57;;;1.20;;
57025;SDS011;43961;52.940;6.834;2022-07-15T14:44:03;3.28;;;1.88;;
57025;SDS011;43961;52.940;6.834;2022-07-15T14:46:30;6.32;;;2.10;;
57025;SDS011;43961;52.940;6.834;2022-07-15T14:48:55;1.60;;;1.50;;
57025;SDS011;43961;52.940;6.834;2022-07-15T14:51:21;3.10;;;1.17;;
57025;SDS011;43961;52.940;6.834;2022-07-15T14:53:48;1.67;;;1.58;;
57025;SDS011;43961;52.940;6.834;2022-07-15T14:56:14;6.20;;;1.42;;
57025;SDS011;43961;52.940;6.834;2022-07-15T14:58:39;2.08;;;1.75;;
57025;SDS011;43961;52.940;6.834;2022-07-15T15:01:05;3.15;;;1.70;;
57025;SDS011;43961;52.940;6.834;2022-07-15T15:03:31;1.65;;;1.55;;
57025;SDS011;43961;52.940;6.834;2022-07-15T15:05:57;4.63;;;1.83;;
57025;SDS011;43961;52.940;6.834;2022-07-15T15:08:24;2.40;;;1.48;;
57025;SDS011;43961;52.940;6.834;2022-07-15T15:10:50;1.80;;;1.70;;
57025;SDS011;43961;52.940;6.834;2022-07-15T15:13:16;5.93;;;1.77;;
57025;SDS011;43961;52.940;6.834;2022-07-15T15:15:42;8.20;;;2.00;;
57025;SDS011;43961;52.940;6.834;2022-07-15T15:18:08;7.57;;;2.00;;
57025;SDS011;43961;52.940;6.834;2022-07-15T15:20:34;5.85;;;2.20;;
57025;SDS011;43961;52.940;6.834;2022-07-15T15:22:59;2.20;;;1.98;;
57025;SDS011;43961;52.940;6.834;2022-07-15T15:25:25;2.45;;;1.80;;
57025;SDS011;43961;52.940;6.834;2022-07-15T15:28:10;2.35;;;1.92;;
57025;SDS011;43961;52.940;6.834;2022-07-15T15:30:35;3.88;;;2.10;;
57025;SDS011;43961;52.940;6.834;2022-07-15T15:33:01;1.95;;;1.77;;
57025;SDS011;43961;52.940;6.834;2022-07-15T15:35:27;21.88;;;2.38;;
57025;SDS011;43961;52.940;6.834;2022-07-15T15:37:52;4.97;;;2.13;;
57025;SDS011;43961;52.940;6.834;2022-07-15T15:40:18;2.97;;;2.03;;
57025;SDS011;43961;52.940;6.834;2022-07-15T15:42:44;2.15;;;1.73;;
57025;SDS011;43961;52.940;6.834;2022-07-15T15:45:11;1.95;;;1.77;;
57025;SDS011;43961;52.940;6.834;2022-07-15T15:47:36;12.27;;;2.13;;
57025;SDS011;43961;52.940;6.834;2022-07-15T15:50:02;20.92;;;2.53;;
57025;SDS011;43961;52.940;6.834;2022-07-15T15:52:28;2.75;;;1.90;;
57025;SDS011;43961;52.940;6.834;2022-07-15T15:54:54;5.38;;;2.63;;
57025;SDS011;43961;52.940;6.834;2022-07-15T15:57:20;3.05;;;1.95;;